createdAt,value
2019-03-29T00:00:19.773Z,11.10
2019-03-29T00:02:50.518Z,10.37
2019-03-29T00:05:20.047Z,10.60
2019-03-29T00:07:49.525Z,11.03
2019-03-29T00:10:18.979Z,12.43
2019-03-29T00:12:48.464Z,12.03
2019-03-29T00:15:17.919Z,12.33
2019-03-29T00:17:47.402Z,13.17
2019-03-29T00:20:16.850Z,12.30
2019-03-29T00:22:46.337Z,12.87
2019-03-29T00:25:15.794Z,14.73
2019-03-29T00:27:45.259Z,13.70
2019-03-29T00:30:14.852Z,13.60
2019-03-29T00:32:44.330Z,13.00
2019-03-29T00:35:13.851Z,12.30
2019-03-29T00:37:53.287Z,12.83
2019-03-29T00:40:14.407Z,13.17
2019-03-29T00:42:43.888Z,13.07
2019-03-29T00:45:14.680Z,12.33
2019-03-29T00:47:44.384Z,12.73
2019-03-29T00:50:13.834Z,13.73
2019-03-29T00:52:43.583Z,14.10
2019-03-29T00:55:13.175Z,15.07
2019-03-29T00:57:42.659Z,14.20
2019-03-29T01:00:12.189Z,13.03
2019-03-29T01:02:41.671Z,14.53
2019-03-29T01:05:11.195Z,14.80
2019-03-29T01:07:40.671Z,15.47
2019-03-29T01:10:10.365Z,15.03
2019-03-29T01:12:39.843Z,16.13
2019-03-29T01:15:09.549Z,14.83
2019-03-29T01:17:39.036Z,16.30
2019-03-29T01:20:10.182Z,15.27
2019-03-29T01:22:39.670Z,15.07
2019-03-29T01:25:09.261Z,15.40
2019-03-29T01:27:38.734Z,15.67
2019-03-29T01:30:08.537Z,16.40
2019-03-29T01:32:38.018Z,15.90
2019-03-29T01:35:09.082Z,16.53
2019-03-29T01:37:38.693Z,16.33
2019-03-29T01:40:09.126Z,16.87
2019-03-29T01:42:38.863Z,18.03
2019-03-29T01:45:08.856Z,17.30
2019-03-29T01:47:38.330Z,16.00
2019-03-29T01:50:09.192Z,17.10
2019-03-29T01:52:38.659Z,17.33
2019-03-29T01:55:08.356Z,16.10
2019-03-29T01:57:37.831Z,17.53
2019-03-29T02:00:09.068Z,18.80
2019-03-29T02:02:38.775Z,17.37
2019-03-29T02:05:08.370Z,19.13
2019-03-29T02:07:38.224Z,19.63
2019-03-29T02:10:09.644Z,19.23
2019-03-29T02:12:39.106Z,19.43
2019-03-29T02:15:09.885Z,18.63
2019-03-29T02:17:39.366Z,18.87
2019-03-29T02:20:08.890Z,20.27
2019-03-29T02:22:38.357Z,20.20
2019-03-29T02:25:09.286Z,20.63
2019-03-29T02:27:38.747Z,20.30
2019-03-29T02:30:09.141Z,20.37
2019-03-29T02:32:38.602Z,19.40
2019-03-29T02:35:08.294Z,19.67
2019-03-29T02:37:37.770Z,19.57
2019-03-29T02:40:07.553Z,21.10
2019-03-29T02:42:37.038Z,20.77
2019-03-29T02:45:07.010Z,21.67
2019-03-29T02:47:36.499Z,21.73
2019-03-29T02:50:08.643Z,20.77
2019-03-29T02:52:37.994Z,20.50
2019-03-29T02:55:08.001Z,19.53
2019-03-29T02:57:37.525Z,21.03
2019-03-29T03:00:09.423Z,20.10
2019-03-29T03:02:39.059Z,20.43
2019-03-29T03:05:09.870Z,21.03
2019-03-29T03:07:39.329Z,22.33
2019-03-29T03:10:11.968Z,21.07
2019-03-29T03:12:41.414Z,21.63
2019-03-29T03:15:12.485Z,22.43
2019-03-29T03:17:41.935Z,22.47
2019-03-29T03:20:15.386Z,23.43
2019-03-29T03:22:44.009Z,24.03
2019-03-29T03:25:13.609Z,23.77
2019-03-29T03:27:43.061Z,24.17
2019-03-29T03:30:13.072Z,24.17
2019-03-29T03:32:42.723Z,23.97
2019-03-29T03:35:12.606Z,24.47
2019-03-29T03:37:42.107Z,23.40
2019-03-29T03:40:12.620Z,23.27
2019-03-29T03:42:42.093Z,21.40
2019-03-29T03:45:11.879Z,22.63
2019-03-29T03:47:41.324Z,22.17
2019-03-29T03:50:35.086Z,23.37
2019-03-29T03:53:05.000Z,22.90
2019-03-29T03:55:38.246Z,21.97
2019-03-29T03:58:08.930Z,24.23
2019-03-29T04:00:50.458Z,25.60
2019-03-29T04:03:20.074Z,26.17
2019-03-29T04:05:50.284Z,23.40
2019-03-29T04:08:20.374Z,24.13
2019-03-29T04:10:49.836Z,25.77
2019-03-29T04:13:19.365Z,25.07
2019-03-29T04:15:48.909Z,22.83
2019-03-29T04:18:18.431Z,25.07
2019-03-29T04:20:47.969Z,24.57
2019-03-29T04:23:17.481Z,22.77
2019-03-29T04:25:46.948Z,23.47
2019-03-29T04:28:16.393Z,24.37
2019-03-29T04:30:45.861Z,24.93
2019-03-29T04:33:15.322Z,25.43
2019-03-29T04:35:44.796Z,24.37
2019-03-29T04:38:14.261Z,24.30
2019-03-29T04:40:43.710Z,23.50
2019-03-29T04:43:13.162Z,24.10
2019-03-29T04:45:42.627Z,22.90
2019-03-29T04:48:12.080Z,23.33
2019-03-29T04:50:41.613Z,23.53
2019-03-29T04:53:11.081Z,25.10
2019-03-29T04:55:40.570Z,24.90
2019-03-29T04:58:10.197Z,23.73
2019-03-29T05:00:39.909Z,22.70
2019-03-29T05:03:09.393Z,23.97
2019-03-29T05:05:38.861Z,23.57
2019-03-29T05:08:08.309Z,23.80
2019-03-29T05:10:37.777Z,23.93
2019-03-29T05:13:07.225Z,23.77
2019-03-29T05:15:36.714Z,23.77
2019-03-29T05:18:06.137Z,23.63
2019-03-29T05:20:35.606Z,24.30
2019-03-29T05:23:05.054Z,23.23
2019-03-29T05:25:34.601Z,27.57
2019-03-29T05:28:04.501Z,25.60
2019-03-29T05:30:33.966Z,23.03
2019-03-29T05:33:03.413Z,26.23
2019-03-29T05:35:32.912Z,27.43
2019-03-29T05:38:02.354Z,26.43
2019-03-29T05:40:35.131Z,25.73
2019-03-29T05:43:02.921Z,24.70
2019-03-29T05:45:32.396Z,26.70
2019-03-29T05:48:01.842Z,26.33
2019-03-29T05:50:31.300Z,27.93
2019-03-29T05:53:00.758Z,27.50
2019-03-29T05:55:32.939Z,25.33
2019-03-29T05:58:01.304Z,25.90
2019-03-29T06:00:30.770Z,28.33
2019-03-29T06:03:00.222Z,25.27
2019-03-29T06:05:29.693Z,25.17
2019-03-29T06:07:59.135Z,22.70
2019-03-29T06:10:28.626Z,22.13
2019-03-29T06:12:58.070Z,24.20
2019-03-29T06:15:27.538Z,25.00
2019-03-29T06:18:16.335Z,25.77
2019-03-29T06:20:45.808Z,25.23
2019-03-29T06:23:15.269Z,25.53
2019-03-29T06:25:44.840Z,25.47
2019-03-29T06:28:14.291Z,26.50
2019-03-29T06:30:43.782Z,23.40
2019-03-29T06:33:14.380Z,23.20
2019-03-29T06:35:46.291Z,26.40
2019-03-29T06:38:16.483Z,25.30
2019-03-29T06:40:45.968Z,26.17
2019-03-29T06:43:15.427Z,24.63
2019-03-29T06:45:48.036Z,25.57
2019-03-29T06:48:16.932Z,24.97
2019-03-29T06:50:46.449Z,26.03
2019-03-29T06:53:15.873Z,25.60
2019-03-29T06:55:45.354Z,27.80
2019-03-29T06:58:14.807Z,27.93
2019-03-29T07:00:46.611Z,25.67
2019-03-29T07:03:15.378Z,25.87
2019-03-29T07:05:44.854Z,25.67
2019-03-29T07:08:14.326Z,24.87
2019-03-29T07:10:43.833Z,23.83
2019-03-29T07:13:13.278Z,22.93
2019-03-29T07:15:42.734Z,22.73
2019-03-29T07:18:12.234Z,21.73
2019-03-29T07:20:41.974Z,21.23
2019-03-29T07:23:11.467Z,21.07
2019-03-29T07:25:40.926Z,20.77
2019-03-29T07:28:10.408Z,19.53
2019-03-29T07:30:39.877Z,20.20
2019-03-29T07:33:09.367Z,19.90
2019-03-29T07:35:38.822Z,19.53
2019-03-29T07:38:08.327Z,19.07
2019-03-29T07:40:37.769Z,18.57
2019-03-29T07:43:07.254Z,20.67
2019-03-29T07:45:36.710Z,19.10
2019-03-29T07:48:06.194Z,18.87
2019-03-29T07:50:35.642Z,17.33
2019-03-29T07:53:05.123Z,18.87
2019-03-29T07:55:37.229Z,17.47
2019-03-29T07:58:05.684Z,16.67
2019-03-29T08:00:35.141Z,16.53
2019-03-29T08:03:04.634Z,17.47
2019-03-29T08:05:35.445Z,17.70
2019-03-29T08:08:05.095Z,16.80
2019-03-29T08:10:34.539Z,14.70
2019-03-29T08:13:04.184Z,14.83
2019-03-29T08:15:33.658Z,14.40
2019-03-29T08:18:03.131Z,12.83
2019-03-29T08:20:43.785Z,14.40
2019-03-29T08:23:03.771Z,11.90
2019-03-29T08:25:33.233Z,11.93
2019-03-29T08:28:02.716Z,11.57
2019-03-29T08:30:32.306Z,12.37
2019-03-29T08:33:01.792Z,10.60
2019-03-29T08:35:31.274Z,12.20
2019-03-29T08:38:00.770Z,11.40
2019-03-29T08:40:30.244Z,11.37
2019-03-29T08:42:59.726Z,12.07
2019-03-29T08:45:29.199Z,12.07
2019-03-29T08:47:58.678Z,11.10
2019-03-29T08:50:28.139Z,11.30
2019-03-29T08:52:57.622Z,10.50
2019-03-29T08:55:27.085Z,9.93
2019-03-29T08:57:56.586Z,10.20
2019-03-29T09:00:30.481Z,10.27
2019-03-29T09:03:00.035Z,10.17
2019-03-29T09:05:29.557Z,9.70
2019-03-29T09:07:59.978Z,10.03
2019-03-29T09:10:29.697Z,11.10
2019-03-29T09:12:59.264Z,9.87
2019-03-29T09:15:28.713Z,9.53
2019-03-29T09:18:00.029Z,9.20
2019-03-29T09:20:29.351Z,9.27
2019-03-29T09:22:58.811Z,9.83
2019-03-29T09:25:28.271Z,10.23
2019-03-29T09:27:57.817Z,9.50
2019-03-29T09:30:27.321Z,10.13
2019-03-29T09:32:56.771Z,8.57
2019-03-29T09:35:26.236Z,8.10
2019-03-29T09:37:56.676Z,8.40
2019-03-29T09:40:26.415Z,9.13
2019-03-29T09:43:06.736Z,8.73
2019-03-29T09:45:27.002Z,8.93
2019-03-29T09:47:56.474Z,9.57
2019-03-29T09:50:25.960Z,9.00
2019-03-29T09:52:55.450Z,8.67
2019-03-29T09:55:24.899Z,8.83
2019-03-29T09:57:54.406Z,10.47
2019-03-29T10:00:24.010Z,9.20
2019-03-29T10:02:53.608Z,9.93
2019-03-29T10:05:23.104Z,9.07
2019-03-29T10:07:52.579Z,9.83
2019-03-29T10:10:22.036Z,9.03
2019-03-29T10:12:51.539Z,8.90
2019-03-29T10:15:20.995Z,9.47
2019-03-29T10:17:50.474Z,9.47
2019-03-29T10:20:19.958Z,10.70
2019-03-29T10:22:49.455Z,10.27
2019-03-29T10:25:20.205Z,10.87
2019-03-29T10:27:49.912Z,11.27
2019-03-29T10:30:37.611Z,10.60
2019-03-29T10:33:07.192Z,11.63
2019-03-29T10:35:50.859Z,11.95
2019-03-29T10:38:08.869Z,12.20
2019-03-29T10:40:38.471Z,12.10
2019-03-29T10:43:08.997Z,10.60
2019-03-29T10:45:40.660Z,10.50
2019-03-29T10:48:09.650Z,11.60
2019-03-29T10:50:39.149Z,10.93
2019-03-29T10:53:08.610Z,10.77
2019-03-29T10:55:38.102Z,11.93
2019-03-29T10:58:09.685Z,10.40
2019-03-29T11:00:39.909Z,12.35
2019-03-29T11:03:09.709Z,11.38
2019-03-29T11:05:39.330Z,11.15
2019-03-29T11:08:11.739Z,10.60
2019-03-29T11:10:40.298Z,11.48
2019-03-29T11:13:14.140Z,11.40
2019-03-29T11:15:40.871Z,11.35
2019-03-29T11:18:10.395Z,11.00
2019-03-29T11:20:39.955Z,11.48
2019-03-29T11:23:09.431Z,11.60
2019-03-29T11:25:38.990Z,11.55
2019-03-29T11:28:08.451Z,11.18
2019-03-29T11:30:42.384Z,10.98
2019-03-29T11:33:09.038Z,12.03
2019-03-29T11:35:38.509Z,11.35
2019-03-29T11:38:09.029Z,10.25
2019-03-29T11:40:38.521Z,10.88
2019-03-29T11:43:08.053Z,10.58
2019-03-29T11:45:37.606Z,10.78
2019-03-29T11:48:09.136Z,11.65
2019-03-29T11:50:38.355Z,10.53
2019-03-29T11:53:07.814Z,11.55
2019-03-29T11:55:37.370Z,10.72
2019-03-29T11:58:06.840Z,10.70
2019-03-29T12:00:37.655Z,11.22
2019-03-29T12:03:09.356Z,11.35
2019-03-29T12:05:38.699Z,12.05
2019-03-29T12:08:08.175Z,11.45
2019-03-29T12:10:37.995Z,11.60
2019-03-29T12:13:08.863Z,11.70
2019-03-29T12:15:38.878Z,11.57
2019-03-29T12:18:09.584Z,11.97
2019-03-29T12:20:39.081Z,12.30
2019-03-29T12:23:08.530Z,12.35
2019-03-29T12:25:38.020Z,12.18
2019-03-29T12:28:07.550Z,12.37
2019-03-29T12:30:37.508Z,12.98
2019-03-29T12:33:07.043Z,11.25
2019-03-29T12:35:36.528Z,11.60
2019-03-29T12:38:06.063Z,11.83
2019-03-29T12:40:35.566Z,11.75
2019-03-29T12:43:05.038Z,11.83
2019-03-29T12:45:34.542Z,12.73
2019-03-29T12:48:04.340Z,11.35
2019-03-29T12:50:33.896Z,13.40
2019-03-29T12:53:03.365Z,12.80
2019-03-29T12:55:32.839Z,11.88
2019-03-29T12:58:02.310Z,12.13
2019-03-29T13:00:31.858Z,12.03
2019-03-29T13:03:01.318Z,12.58
2019-03-29T13:05:30.802Z,11.73
2019-03-29T13:08:00.268Z,12.23
2019-03-29T13:10:29.822Z,12.40
2019-03-29T13:13:00.781Z,13.15
2019-03-29T13:15:30.614Z,12.28
2019-03-29T13:18:00.065Z,12.30
2019-03-29T13:20:29.621Z,12.73
2019-03-29T13:22:59.169Z,12.55
2019-03-29T13:25:28.715Z,14.43
2019-03-29T13:27:59.515Z,13.48
2019-03-29T13:30:29.271Z,13.22
2019-03-29T13:32:58.742Z,12.75
2019-03-29T13:35:28.763Z,13.35
2019-03-29T13:37:58.223Z,12.47
2019-03-29T13:40:27.708Z,12.95
2019-03-29T13:42:57.171Z,13.18
2019-03-29T13:45:28.035Z,12.93
2019-03-29T13:47:57.707Z,13.22
2019-03-29T13:50:27.282Z,11.93
2019-03-29T13:52:56.721Z,12.78
2019-03-29T13:55:26.209Z,12.37
2019-03-29T13:57:56.738Z,12.68
2019-03-29T14:00:26.241Z,12.82
2019-03-29T14:02:55.706Z,12.95
2019-03-29T14:05:25.209Z,13.22
2019-03-29T14:07:54.663Z,13.58
2019-03-29T14:10:24.173Z,12.68
2019-03-29T14:12:53.617Z,12.53
2019-03-29T14:15:23.132Z,14.40
2019-03-29T14:17:52.585Z,13.48
2019-03-29T14:20:32.533Z,11.88
2019-03-29T14:23:03.022Z,14.00
2019-03-29T14:25:32.616Z,13.13
2019-03-29T14:28:02.068Z,12.80
2019-03-29T14:30:31.518Z,13.20
2019-03-29T14:33:02.071Z,13.70
2019-03-29T14:35:31.538Z,11.97
2019-03-29T14:38:01.011Z,13.53
2019-03-29T14:40:30.468Z,12.40
2019-03-29T14:42:59.941Z,12.80
2019-03-29T14:45:29.398Z,13.00
2019-03-29T14:47:58.872Z,13.62
2019-03-29T14:50:29.413Z,13.70
2019-03-29T14:52:58.900Z,12.70
2019-03-29T14:55:28.353Z,11.93
2019-03-29T14:57:57.840Z,11.90
2019-03-29T15:00:38.403Z,12.00
2019-03-29T15:03:07.884Z,11.08
2019-03-29T15:05:37.325Z,12.23
2019-03-29T15:08:07.865Z,12.10
2019-03-29T15:10:37.469Z,12.20
2019-03-29T15:13:06.964Z,12.68
2019-03-29T15:15:36.417Z,12.65
2019-03-29T15:18:05.957Z,11.93
2019-03-29T15:20:35.411Z,12.53
2019-03-29T15:23:05.005Z,11.22
2019-03-29T15:25:34.489Z,11.28
2019-03-29T15:28:03.954Z,12.05
2019-03-29T15:30:33.424Z,12.10
2019-03-29T15:33:02.900Z,12.73
2019-03-29T15:35:32.356Z,13.98
2019-03-29T15:38:01.852Z,12.80
2019-03-29T15:40:31.302Z,12.65
2019-03-29T15:43:00.785Z,13.90
2019-03-29T15:45:30.231Z,12.40
2019-03-29T15:47:59.734Z,12.93
2019-03-29T15:50:29.182Z,10.63
2019-03-29T15:52:58.657Z,11.95
2019-03-29T15:55:28.185Z,12.07
2019-03-29T15:57:57.601Z,12.65
2019-03-29T16:00:27.057Z,12.28
2019-03-29T16:02:56.705Z,12.37
2019-03-29T16:05:26.162Z,12.73
2019-03-29T16:07:55.638Z,12.13
2019-03-29T16:10:25.120Z,11.78
2019-03-29T16:12:54.593Z,12.73
2019-03-29T16:15:34.893Z,13.40
2019-03-29T16:17:55.149Z,11.80
2019-03-29T16:20:24.638Z,12.60
2019-03-29T16:22:54.081Z,12.30
2019-03-29T16:25:23.536Z,11.65
2019-03-29T16:27:53.010Z,12.37
2019-03-29T16:30:22.937Z,12.28
2019-03-29T16:32:52.429Z,11.48
2019-03-29T16:35:21.886Z,11.28
2019-03-29T16:37:57.003Z,11.70
2019-03-29T16:40:22.438Z,10.85
2019-03-29T16:42:51.923Z,10.75
2019-03-29T16:45:21.396Z,12.15
2019-03-29T16:47:50.874Z,13.20
2019-03-29T16:50:20.351Z,14.05
2019-03-29T16:52:49.825Z,13.95
2019-03-29T16:55:19.290Z,15.23
2019-03-29T16:57:48.854Z,14.38
2019-03-29T17:00:18.382Z,14.10
2019-03-29T17:02:47.863Z,15.20
2019-03-29T17:05:17.335Z,13.78
2019-03-29T17:07:46.821Z,14.18
2019-03-29T17:10:17.267Z,12.73
2019-03-29T17:12:46.742Z,14.53
2019-03-29T17:15:16.370Z,13.50
2019-03-29T17:17:45.813Z,14.25
2019-03-29T17:20:15.299Z,15.50
2019-03-29T17:22:44.745Z,13.28
2019-03-29T17:25:14.229Z,14.53
2019-03-29T17:27:43.685Z,14.98
2019-03-29T17:30:15.130Z,14.43
2019-03-29T17:32:45.075Z,13.40
2019-03-29T17:35:14.885Z,14.55
2019-03-29T17:37:44.361Z,14.10
2019-03-29T17:40:13.978Z,14.03
2019-03-29T17:42:43.506Z,13.77
2019-03-29T17:45:13.123Z,14.58
2019-03-29T17:47:42.569Z,14.20
2019-03-29T17:50:12.208Z,14.70
2019-03-29T17:52:43.551Z,15.47
2019-03-29T17:55:13.031Z,17.23
2019-03-29T17:57:42.485Z,16.00
2019-03-29T18:00:13.835Z,17.17
2019-03-29T18:02:43.297Z,16.47
2019-03-29T18:05:12.861Z,16.00
2019-03-29T18:07:42.333Z,16.13
2019-03-29T18:10:11.955Z,17.17
2019-03-29T18:12:41.401Z,16.03
2019-03-29T18:15:11.237Z,16.70
2019-03-29T18:17:40.698Z,15.50
2019-03-29T18:20:10.814Z,15.30
2019-03-29T18:22:40.265Z,16.87
2019-03-29T18:25:09.876Z,16.50
2019-03-29T18:27:39.334Z,16.23
2019-03-29T18:30:10.830Z,16.27
2019-03-29T18:32:40.358Z,17.03
2019-03-29T18:35:10.266Z,17.10
2019-03-29T18:37:39.786Z,16.70
2019-03-29T18:40:25.037Z,16.83
2019-03-29T18:42:55.430Z,17.47
2019-03-29T18:45:24.896Z,17.73
2019-03-29T18:47:54.365Z,16.20
2019-03-29T18:50:23.833Z,17.33
2019-03-29T18:52:54.254Z,18.97
2019-03-29T18:55:23.744Z,17.70
2019-03-29T18:57:53.190Z,17.53
2019-03-29T19:00:35.166Z,18.63
2019-03-29T19:03:04.974Z,17.90
2019-03-29T19:05:34.511Z,19.30
2019-03-29T19:08:04.023Z,17.67
2019-03-29T19:10:33.521Z,17.87
2019-03-29T19:13:02.977Z,19.17
2019-03-29T19:15:32.449Z,18.00
2019-03-29T19:18:01.902Z,18.93
2019-03-29T19:20:31.366Z,18.53
2019-03-29T19:23:00.821Z,18.57
2019-03-29T19:25:30.278Z,19.83
2019-03-29T19:27:59.737Z,18.47
2019-03-29T19:30:29.221Z,19.13
2019-03-29T19:32:58.662Z,20.27
2019-03-29T19:35:28.121Z,20.07
2019-03-29T19:37:57.578Z,20.00
2019-03-29T19:40:27.044Z,21.90
2019-03-29T19:42:57.570Z,20.00
2019-03-29T19:45:27.041Z,20.40
2019-03-29T19:47:56.495Z,21.97
2019-03-29T19:50:25.963Z,19.90
2019-03-29T19:52:55.436Z,21.30
2019-03-29T19:55:24.893Z,21.50
2019-03-29T19:57:54.372Z,22.20
2019-03-29T20:00:26.880Z,21.07
2019-03-29T20:02:56.327Z,19.67
2019-03-29T20:05:28.862Z,21.87
2019-03-29T20:07:58.311Z,21.40
2019-03-29T20:10:27.799Z,22.03
2019-03-29T20:12:57.477Z,21.80
2019-03-29T20:15:26.955Z,21.47
2019-03-29T20:17:56.479Z,20.40
2019-03-29T20:20:26.900Z,21.27
2019-03-29T20:22:57.611Z,20.47
2019-03-29T20:25:27.083Z,21.57
2019-03-29T20:27:58.284Z,20.93
2019-03-29T20:30:28.741Z,21.27
2019-03-29T20:32:58.194Z,23.47
2019-03-29T20:35:27.662Z,23.00
2019-03-29T20:37:57.115Z,21.97
2019-03-29T20:40:26.591Z,22.50
2019-03-29T20:42:56.058Z,23.27
2019-03-29T20:45:25.586Z,21.47
2019-03-29T20:47:55.040Z,21.07
2019-03-29T20:50:24.508Z,22.17
2019-03-29T20:52:53.984Z,21.60
2019-03-29T20:55:23.486Z,23.23
2019-03-29T20:57:52.956Z,24.93
2019-03-29T21:00:22.498Z,21.50
2019-03-29T21:02:52.063Z,24.83
2019-03-29T21:05:21.512Z,24.67
2019-03-29T21:07:51.059Z,24.70
2019-03-29T21:10:20.529Z,23.00
2019-03-29T21:12:50.034Z,22.97
2019-03-29T21:15:19.604Z,22.17
2019-03-29T21:17:56.476Z,24.07
2019-03-29T21:20:20.162Z,24.90
2019-03-29T21:22:49.647Z,22.73
2019-03-29T21:25:19.122Z,23.60
2019-03-29T21:27:48.599Z,23.73
2019-03-29T21:30:19.839Z,22.73
2019-03-29T21:32:49.378Z,22.67
2019-03-29T21:35:19.714Z,22.43
2019-03-29T21:37:49.249Z,23.93
2019-03-29T21:40:18.807Z,22.23
2019-03-29T21:43:01.653Z,21.83
2019-03-29T21:45:31.406Z,21.43
2019-03-29T21:48:23.852Z,22.87
2019-03-29T21:50:31.998Z,24.83
2019-03-29T21:53:01.493Z,24.37
2019-03-29T21:55:30.938Z,24.03
2019-03-29T21:58:00.414Z,24.83
2019-03-29T22:00:29.886Z,24.37
2019-03-29T22:02:59.360Z,26.17
2019-03-29T22:05:28.833Z,24.83
2019-03-29T22:07:58.307Z,27.17
2019-03-29T22:10:27.763Z,26.77
2019-03-29T22:12:57.242Z,25.30
2019-03-29T22:15:26.699Z,28.73
2019-03-29T22:17:56.182Z,26.30
2019-03-29T22:20:25.655Z,27.60
2019-03-29T22:22:55.132Z,25.73
2019-03-29T22:25:24.669Z,27.97
2019-03-29T22:27:54.166Z,27.83
2019-03-29T22:30:23.639Z,26.83
2019-03-29T22:32:53.114Z,26.93
2019-03-29T22:35:22.570Z,26.77
2019-03-29T22:37:52.067Z,26.43
2019-03-29T22:40:21.514Z,26.03
2019-03-29T22:42:52.063Z,26.27
2019-03-29T22:45:21.514Z,24.70
2019-03-29T22:47:50.995Z,26.73
2019-03-29T22:50:20.442Z,26.03
2019-03-29T22:52:49.926Z,24.83
2019-03-29T22:55:19.379Z,25.43
2019-03-29T22:57:48.859Z,26.83
2019-03-29T23:00:25.914Z,24.13
2019-03-29T23:02:57.079Z,25.53
2019-03-29T23:05:26.558Z,24.27
2019-03-29T23:07:56.022Z,24.17
2019-03-29T23:10:25.487Z,23.03
2019-03-29T23:12:54.994Z,21.63
2019-03-29T23:15:24.446Z,22.73
2019-03-29T23:17:53.927Z,24.50
2019-03-29T23:20:23.384Z,22.23
2019-03-29T23:22:52.866Z,20.83
2019-03-29T23:25:22.314Z,23.60
2019-03-29T23:27:51.796Z,22.40
2019-03-29T23:30:21.663Z,22.97
2019-03-29T23:32:51.147Z,24.37
2019-03-29T23:35:20.599Z,23.00
2019-03-29T23:37:50.147Z,22.40
2019-03-29T23:40:19.598Z,21.67
2019-03-29T23:42:49.084Z,22.63
2019-03-29T23:45:19.613Z,23.73
2019-03-29T23:47:49.099Z,22.50
2019-03-29T23:50:18.556Z,22.57
2019-03-29T23:52:48.094Z,21.50
2019-03-29T23:55:17.618Z,21.03
2019-03-29T23:57:47.118Z,22.43
